Time;durP1;ratioP1;P1;durP2;ratioP2;P2;SDS_P1;SDS_P2;PMS_P1;PMS_P2;Temp;Humidity;BMP_temperature;BMP_pressure;BME280_temperature;BME280_humidity;BME280_pressure;Samples;Min_cycle;Max_cycle;Signal;HPM_P1;HPM_P2
2021/04/17 00:01:15;;;;;;;5.57;5.07;;;4.70;99.60;;;;;;4836058;28;20222;-82
2021/04/17 00:03:37;;;;;;;5.20;4.73;;;4.00;99.40;;;;;;4825194;28;20293;-77
2021/04/17 00:06:00;;;;;;;5.60;5.10;;;;;;;;;;4828065;28;20607;-78
2021/04/17 00:08:22;;;;;;;5.50;5.00;;;4.20;96.00;;;;;;4836655;28;20217;-78
2021/04/17 00:10:45;;;;;;;5.30;4.87;;;3.80;95.40;;;;;;4834470;28;20187;-77
2021/04/17 00:13:07;;;;;;;5.43;4.93;;;3.80;83.10;;;;;;4836585;28;20226;-78
2021/04/17 00:15:29;;;;;;;4.87;4.47;;;3.80;90.60;;;;;;4820817;28;20665;-79
2021/04/17 00:17:52;;;;;;;5.33;4.83;;;;;;;;;;4836035;28;20570;-78
2021/04/17 00:20:15;;;;;;;5.17;4.70;;;3.90;90.40;;;;;;4836370;28;20202;-84
2021/04/17 00:22:38;;;;;;;5.57;5.07;;;;;;;;;;4832307;28;20203;-82
2021/04/17 00:25:00;;;;;;;5.53;5.03;;;3.70;90.90;;;;;;4833666;28;20241;-80
2021/04/17 00:27:23;;;;;;;5.60;5.07;;;3.70;91.90;;;;;;4818281;28;20195;-84
2021/04/17 00:29:46;;;;;;;5.90;5.40;;;3.80;92.90;;;;;;4823516;28;20270;-86
2021/04/17 00:32:09;;;;;;;6.10;5.60;;;3.80;94.40;;;;;;4838033;28;20195;-80
2021/04/17 00:34:31;;;;;;;5.50;5.00;;;3.70;85.30;;;;;;4836776;28;20230;-83
2021/04/17 00:36:54;;;;;;;6.00;5.40;;;3.60;96.00;;;;;;4837243;28;20202;-77
2021/04/17 00:39:16;;;;;;;6.10;5.50;;;3.70;97.40;;;;;;4837555;28;20215;-80
2021/04/17 00:41:38;;;;;;;6.07;5.53;;;3.70;97.40;;;;;;4819356;28;20227;-81
2021/04/17 00:44:02;;;;;;;6.20;5.60;;;3.70;87.20;;;;;;4828296;28;20199;-80
2021/04/17 00:46:24;;;;;;;5.73;5.23;;;3.70;88.00;;;;;;4841168;28;20195;-84
2021/04/17 00:48:47;;;;;;;6.17;5.60;;;3.70;95.40;;;;;;4823225;28;20191;-77
2021/04/17 00:51:10;;;;;;;5.17;4.67;;;3.60;95.70;;;;;;4841260;28;20653;-84
2021/04/17 00:53:33;;;;;;;4.50;4.13;;;;;;;;;;4839678;28;20234;-77
2021/04/17 00:55:56;;;;;;;4.77;4.37;;;;;;;;;;4838935;28;20230;-82
2021/04/17 00:58:18;;;;;;;5.47;4.97;;;4.30;94.30;;;;;;4841323;28;20186;-80
2021/04/17 01:00:41;;;;;;;5.17;4.77;;;3.70;90.70;;;;;;4837498;28;20277;-78
2021/04/17 01:03:11;;;;;;;5.23;4.73;;;3.80;89.80;;;;;;4838175;28;20588;-77
2021/04/17 01:05:34;;;;;;;5.43;5.03;;;3.70;69.20;;;;;;4804697;28;20212;-80
2021/04/17 01:07:58;;;;;;;5.30;4.80;;;3.80;84.30;;;;;;4809527;28;20757;-81
2021/04/17 01:10:28;;;;;;;5.80;5.20;;;3.70;83.30;;;;;;4821879;28;20191;-85
2021/04/17 01:12:54;;;;;;;5.20;4.73;;;3.70;59.80;;;;;;4835681;28;20210;-81
2021/04/17 01:15:18;;;;;;;5.77;5.20;;;4.10;71.40;;;;;;4839574;28;20190;-84
2021/04/17 01:17:44;;;;;;;6.00;5.43;;;3.60;76.30;;;;;;4840712;28;20726;-82
2021/04/17 01:20:12;;;;;;;6.20;5.63;;;3.60;76.40;;;;;;4840922;28;20601;-82
2021/04/17 01:22:35;;;;;;;6.43;5.83;;;4.30;78.20;;;;;;4819745;28;20215;-79
2021/04/17 01:25:04;;;;;;;6.83;6.23;;;3.70;62.30;;;;;;4838389;28;20308;-77
2021/04/17 01:27:27;;;;;;;7.20;6.50;;;3.50;71.50;;;;;;4839213;28;20199;-77
2021/04/17 01:29:50;;;;;;;6.57;5.93;;;3.90;85.00;;;;;;4836109;28;20753;-78
2021/04/17 01:32:14;;;;;;;6.47;5.97;;;3.70;87.80;;;;;;4829694;28;20249;-80
2021/04/17 01:34:36;;;;;;;6.27;5.77;;;3.60;86.60;;;;;;4848564;28;20615;-80
2021/04/17 01:36:59;;;;;;;5.93;5.43;;;;;;;;;;4840779;28;20597;-84
2021/04/17 01:39:26;;;;;;;6.00;5.50;;;3.70;79.60;;;;;;4822921;28;20285;-82
2021/04/17 01:41:51;;;;;;;5.93;5.43;;;3.70;82.30;;;;;;4839615;28;20187;-74
2021/04/17 01:44:19;;;;;;;5.60;5.10;;;3.70;62.70;;;;;;4822617;28;20206;-77
2021/04/17 01:46:45;;;;;;;5.90;5.40;;;3.60;78.20;;;;;;4835286;28;20654;-78
2021/04/17 01:49:10;;;;;;;6.17;5.63;;;3.70;77.10;;;;;;4840231;28;20190;-79
2021/04/17 01:51:33;;;;;;;5.80;5.30;;;3.60;57.70;;;;;;4821820;28;20673;-75
2021/04/17 01:53:57;;;;;;;6.00;5.50;;;3.80;72.80;;;;;;4838164;28;20222;-78
2021/04/17 01:56:21;;;;;;;5.57;5.07;;;3.60;70.10;;;;;;4838334;28;20536;-78
2021/04/17 01:58:44;;;;;;;5.90;5.50;;;3.40;52.70;;;;;;4840114;28;20594;-79
2021/04/17 02:01:07;;;;;;;5.83;5.33;;;5.30;55.90;;;;;;4836620;28;20230;-79
2021/04/17 02:03:30;;;;;;;5.83;5.33;;;4.50;73.30;;;;;;4838910;28;20222;-78
2021/04/17 02:05:54;;;;;;;5.53;5.03;;;3.50;73.50;;;;;;4839575;28;20194;-76
2021/04/17 02:08:17;;;;;;;5.13;4.70;;;3.50;72.00;;;;;;4838342;28;20202;-83
2021/04/17 02:10:39;;;;;;;5.13;4.63;;;3.60;67.40;;;;;;4840334;28;20212;-84
2021/04/17 02:13:01;;;;;;;5.30;4.90;;;3.60;67.50;;;;;;4839950;28;20218;-84
2021/04/17 02:15:23;;;;;;;5.03;4.63;;;3.40;70.40;;;;;;4815438;28;20626;-79
2021/04/17 02:17:54;;;;;;;4.97;4.57;;;3.40;70.30;;;;;;4838793;28;20195;-82
2021/04/17 02:20:22;;;;;;;3.97;3.57;;;3.40;55.00;;;;;;4839885;28;20642;-79
2021/04/17 02:22:45;;;;;;;4.17;3.77;;;3.50;54.90;;;;;;4822230;28;20191;-83
2021/04/17 02:25:09;;;;;;;4.10;3.80;;;3.40;69.40;;;;;;4819613;28;20242;-83
2021/04/17 02:27:32;;;;;;;4.20;3.90;;;3.30;71.90;;;;;;4836112;28;20191;-82
2021/04/17 02:29:55;;;;;;;4.30;4.00;;;3.40;57.80;;;;;;4837805;28;20202;-76
2021/04/17 02:32:18;;;;;;;4.03;3.73;;;3.20;78.60;;;;;;4838280;28;20222;-76
2021/04/17 02:34:41;;;;;;;4.53;4.13;;;3.60;84.90;;;;;;4837580;28;20281;-81
2021/04/17 02:37:03;;;;;;;4.53;4.13;;;;;;;;;;4810636;28;20204;-78
2021/04/17 02:39:25;;;;;;;4.00;3.63;;;3.40;91.80;;;;;;4819671;28;20215;-85
2021/04/17 02:41:48;;;;;;;4.50;4.10;;;3.10;75.40;;;;;;4828351;28;20604;-76
2021/04/17 02:44:10;;;;;;;4.10;3.80;;;3.30;89.30;;;;;;4822168;28;20187;-88
2021/04/17 02:46:33;;;;;;;4.03;3.73;;;3.50;90.60;;;;;;4838682;28;20207;-77
2021/04/17 02:48:55;;;;;;;3.93;3.63;;;3.70;92.10;;;;;;4838223;28;20210;-82
2021/04/17 02:51:18;;;;;;;4.17;3.77;;;3.40;91.50;;;;;;4839698;28;20179;-79
2021/04/17 02:53:40;;;;;;;4.30;3.93;;;3.30;90.40;;;;;;4830396;28;20219;-86
2021/04/17 02:56:02;;;;;;;3.47;3.17;;;3.50;92.00;;;;;;4822867;28;20308;-76
2021/04/17 02:58:25;;;;;;;3.67;3.30;;;3.50;91.30;;;;;;4837696;28;20257;-83
2021/04/17 03:00:47;;;;;;;3.73;3.43;;;4.20;89.40;;;;;;4818042;28;20893;-76
2021/04/17 03:03:09;;;;;;;3.50;3.20;;;3.50;89.80;;;;;;4837811;28;20234;-87
2021/04/17 03:05:31;;;;;;;4.10;3.80;;;3.30;80.10;;;;;;4837861;28;20602;-84
2021/04/17 03:07:54;;;;;;;3.47;3.17;;;3.50;91.50;;;;;;4836873;28;20211;-87
2021/04/17 03:10:17;;;;;;;3.33;3.10;;;4.20;91.80;;;;;;4839402;28;20248;-82
2021/04/17 03:12:39;;;;;;;3.37;3.10;;;3.20;92.10;;;;;;4806099;28;20191;-88
2021/04/17 03:15:02;;;;;;;3.70;3.40;;;3.00;93.30;;;;;;4837507;28;20293;-87
2021/04/17 03:17:24;;;;;;;3.67;3.37;;;3.30;95.50;;;;;;4839684;28;20730;-81
2021/04/17 03:19:46;;;;;;;4.17;3.77;;;3.70;97.90;;;;;;4838494;28;20202;-88
2021/04/17 03:22:09;;;;;;;4.30;3.90;;;3.20;99.90;;;;;;4838543;28;20190;-89
2021/04/17 03:24:32;;;;;;;4.30;3.90;;;3.60;99.90;;;;;;4838396;28;20680;-84
2021/04/17 03:26:54;;;;;;;4.83;4.43;;;;;;;;;;4837657;28;20211;-80
2021/04/17 03:29:16;;;;;;;4.37;3.97;;;3.20;99.90;;;;;;4839446;28;20191;-90
2021/04/17 03:31:38;;;;;;;4.07;3.77;;;3.20;99.90;;;;;;4838023;28;20237;-86
2021/04/17 03:34:00;;;;;;;4.73;4.33;;;3.20;99.90;;;;;;4837873;28;20202;-78
2021/04/17 03:36:22;;;;;;;4.40;4.10;;;3.30;99.90;;;;;;4830170;28;20191;-79
2021/04/17 03:38:45;;;;;;;4.97;4.57;;;3.30;99.90;;;;;;4820382;28;20665;-87
2021/04/17 03:41:08;;;;;;;6.03;4.67;;;3.20;99.90;;;;;;4837557;28;20230;-84
2021/04/17 03:43:30;;;;;;;5.27;4.60;;;3.10;99.90;;;;;;4834600;28;20680;-89
2021/04/17 03:45:52;;;;;;;5.43;5.03;;;3.50;99.90;;;;;;4832944;28;20187;-80
2021/04/17 03:48:15;;;;;;;5.70;5.20;;;3.40;99.90;;;;;;4837684;28;20198;-79
2021/04/17 03:50:38;;;;;;;6.87;6.20;;;3.20;99.90;;;;;;4821010;28;20218;-81
2021/04/17 03:53:00;;;;;;;8.60;7.33;;;3.10;99.90;;;;;;4838573;28;20240;-85
2021/04/17 03:55:22;;;;;;;9.63;8.40;;;3.30;99.90;;;;;;4850442;28;20279;-76
2021/04/17 03:57:45;;;;;;;10.07;9.07;;;3.50;99.90;;;;;;4833329;28;20198;-86
2021/04/17 04:00:11;;;;;;;9.13;8.20;;;3.40;99.90;;;;;;4837197;28;20229;-78
2021/04/17 04:02:33;;;;;;;9.47;8.57;;;3.40;99.30;;;;;;4834283;28;20230;-79
2021/04/17 04:04:55;;;;;;;9.77;8.83;;;3.20;99.90;;;;;;4838035;28;20190;-85
2021/04/17 04:07:17;;;;;;;8.97;8.07;;;3.50;99.90;;;;;;4819684;28;20195;-77
2021/04/17 04:09:39;;;;;;;9.37;8.47;;;3.60;99.90;;;;;;4820173;28;20200;-79
2021/04/17 04:12:05;;;;;;;8.83;8.00;;;3.30;99.90;;;;;;4820735;28;20599;-84
2021/04/17 04:14:28;;;;;;;9.20;8.30;;;3.40;99.90;;;;;;4838198;28;20211;-86
2021/04/17 04:16:50;;;;;;;8.80;7.97;;;3.60;99.90;;;;;;4838436;28;20233;-85
2021/04/17 04:19:12;;;;;;;9.33;8.43;;;3.30;99.90;;;;;;4839105;28;20736;-81
2021/04/17 04:21:35;;;;;;;9.17;8.27;;;;;;;;;;4841884;28;20195;-76
2021/04/17 04:23:57;;;;;;;9.20;8.30;;;3.60;99.90;;;;;;4824325;28;20199;-80
2021/04/17 04:26:19;;;;;;;8.10;7.40;;;3.30;99.90;;;;;;4823609;28;20199;-81
2021/04/17 04:28:41;;;;;;;8.50;7.60;;;3.50;99.90;;;;;;4839128;28;20203;-81
2021/04/17 04:31:04;;;;;;;11.10;8.97;;;3.50;99.90;;;;;;4837666;28;20202;-78
2021/04/17 04:33:26;;;;;;;8.97;8.07;;;3.60;99.90;;;;;;4827352;28;20774;-76
2021/04/17 04:35:49;;;;;;;10.23;8.57;;;3.50;99.90;;;;;;4839506;28;20203;-82
2021/04/17 04:38:11;;;;;;;9.13;8.23;;;3.50;99.90;;;;;;4841438;28;20207;-80
2021/04/17 04:40:34;;;;;;;9.40;8.20;;;;;;;;;;4841548;28;20324;-77
2021/04/17 04:42:56;;;;;;;9.20;8.33;;;3.60;99.90;;;;;;4839870;28;20203;-77
2021/04/17 04:45:18;;;;;;;8.40;7.50;;;3.50;99.90;;;;;;4841590;28;20648;-76
2021/04/17 04:47:41;;;;;;;9.50;8.60;;;3.80;99.90;;;;;;4839748;28;20252;-83
2021/04/17 04:50:04;;;;;;;9.57;8.20;;;3.60;99.40;;;;;;4842040;28;20191;-80
2021/04/17 04:52:26;;;;;;;9.57;8.67;;;3.50;99.90;;;;;;4838762;28;20285;-84
2021/04/17 04:54:48;;;;;;;10.00;9.00;;;3.60;99.90;;;;;;4856719;28;20753;-83
2021/04/17 04:57:11;;;;;;;9.57;8.37;;;3.70;99.90;;;;;;4838729;28;20203;-83
2021/04/17 04:59:33;;;;;;;9.33;8.43;;;3.80;99.90;;;;;;4841783;28;20306;-77
2021/04/17 05:01:55;;;;;;;10.27;9.27;;;3.90;99.90;;;;;;4845832;28;20233;-85
2021/04/17 05:04:18;;;;;;;10.07;9.07;;;3.70;99.90;;;;;;4840169;28;20202;-76
2021/04/17 05:06:40;;;;;;;10.23;9.23;;;3.90;99.90;;;;;;4822878;28;20187;-86
2021/04/17 05:09:03;;;;;;;11.20;10.00;;;3.70;99.90;;;;;;4841427;28;20707;-76
2021/04/17 05:11:25;;;;;;;11.57;10.07;;;3.90;99.90;;;;;;4839707;28;20253;-80
2021/04/17 05:13:47;;;;;;;11.07;9.97;;;3.60;99.90;;;;;;4855821;28;20265;-80
2021/04/17 05:16:10;;;;;;;10.93;9.83;;;4.40;99.90;;;;;;4822642;28;20253;-83
2021/04/17 05:18:32;;;;;;;9.70;8.70;;;4.00;99.90;;;;;;4838718;28;20587;-78
2021/04/17 05:20:55;;;;;;;10.77;9.67;;;4.00;90.80;;;;;;4841277;28;20730;-77
2021/04/17 05:23:17;;;;;;;10.50;9.47;;;3.90;95.90;;;;;;4838735;28;20203;-83
2021/04/17 05:25:39;;;;;;;10.43;9.43;;;4.10;88.40;;;;;;4840662;28;20599;-79
2021/04/17 05:28:03;;;;;;;10.03;9.03;;;4.10;91.80;;;;;;4839105;28;20191;-80
2021/04/17 05:30:25;;;;;;;10.97;9.80;;;4.60;83.50;;;;;;4838309;28;20680;-78
2021/04/17 05:32:48;;;;;;;11.77;10.53;;;;;;;;;;4822206;28;20191;-77
2021/04/17 05:35:10;;;;;;;11.63;10.17;;;4.40;82.80;;;;;;4838971;28;20293;-80
2021/04/17 05:37:33;;;;;;;10.80;9.70;;;4.30;64.50;;;;;;4839026;28;20233;-77
2021/04/17 05:39:55;;;;;;;10.20;9.20;;;4.20;65.00;;;;;;4833658;28;20222;-79
2021/04/17 05:42:18;;;;;;;10.03;9.03;;;4.40;71.80;;;;;;4835942;28;20234;-76
2021/04/17 05:44:40;;;;;;;9.77;8.80;;;4.40;50.80;;;;;;4839407;28;20253;-78
2021/04/17 05:47:02;;;;;;;8.07;7.27;;;5.00;47.30;;;;;;4839472;28;20655;-77
2021/04/17 05:49:24;;;;;;;8.20;7.40;;;4.50;53.90;;;;;;4813675;28;20191;-80
2021/04/17 05:51:46;;;;;;;7.47;6.73;;;4.40;53.20;;;;;;4838464;28;20746;-78
2021/04/17 05:54:12;;;;;;;6.90;6.30;;;4.40;37.80;;;;;;4840393;28;20218;-83
2021/04/17 05:56:35;;;;;;;8.27;7.47;;;4.40;27.30;;;;;;4835628;28;20278;-76
2021/04/17 05:58:57;;;;;;;7.13;6.13;;;4.50;33.40;;;;;;4836134;28;20252;-76
2021/04/17 06:01:19;;;;;;;7.37;6.63;;;4.60;32.40;;;;;;4828783;28;20276;-81
2021/04/17 06:03:41;;;;;;;6.70;6.10;;;4.60;22.10;;;;;;4838155;28;20586;-80
2021/04/17 06:06:03;;;;;;;5.77;5.27;;;4.60;1.00;;;;;;4829418;28;20678;-79
2021/04/17 06:08:26;;;;;;;5.90;5.40;;;4.60;1.00;;;;;;4832589;28;20191;-75
2021/04/17 06:10:49;;;;;;;6.40;5.30;;;4.60;1.00;;;;;;4821292;28;20195;-75
2021/04/17 06:13:11;;;;;;;7.00;6.30;;;4.70;1.00;;;;;;4837720;28;20206;-78
2021/04/17 06:15:33;;;;;;;6.70;6.10;;;4.60;1.00;;;;;;4838622;28;20257;-76
2021/04/17 06:17:55;;;;;;;5.67;5.17;;;4.70;1.00;;;;;;4837388;28;20195;-76
2021/04/17 06:20:18;;;;;;;6.00;5.50;;;;;;;;;;4837827;28;20207;-75
2021/04/17 06:22:40;;;;;;;6.20;5.60;;;4.70;1.00;;;;;;4854237;28;20190;-84
2021/04/17 06:25:02;;;;;;;5.57;5.07;;;4.90;1.00;;;;;;4852489;28;20248;-77
2021/04/17 06:27:25;;;;;;;5.70;5.20;;;4.90;1.00;;;;;;4839221;28;20252;-81
2021/04/17 06:29:47;;;;;;;6.63;6.07;;;4.90;1.00;;;;;;4839788;28;20194;-85
2021/04/17 06:32:09;;;;;;;6.73;6.10;;;4.40;1.00;;;;;;4839279;28;20680;-85
2021/04/17 06:34:32;;;;;;;6.77;6.17;;;;;;;;;;4855379;28;20226;-86
2021/04/17 06:36:54;;;;;;;6.43;5.83;;;5.00;1.00;;;;;;4838030;28;20257;-82
2021/04/17 06:39:16;;;;;;;5.23;4.70;;;5.00;1.00;;;;;;4839896;28;20566;-81
2021/04/17 06:41:42;;;;;;;6.73;6.13;;;5.10;1.00;;;;;;4837478;28;20317;-84
2021/04/17 06:44:06;;;;;;;6.63;6.03;;;5.00;1.00;;;;;;4836919;28;20248;-77
2021/04/17 06:46:31;;;;;;;6.37;4.93;;;5.20;1.00;;;;;;4838907;28;20187;-83
2021/04/17 06:48:54;;;;;;;5.93;5.43;;;5.10;1.00;;;;;;4839096;28;20195;-82
2021/04/17 06:51:18;;;;;;;6.93;6.23;;;5.10;1.00;;;;;;4837746;28;20186;-79
2021/04/17 06:53:41;;;;;;;5.83;5.30;;;5.10;1.00;;;;;;4838812;28;20653;-78
2021/04/17 06:56:04;;;;;;;6.93;5.70;;;5.20;1.00;;;;;;4836862;28;20226;-80
2021/04/17 06:58:27;;;;;;;6.33;5.73;;;5.00;1.00;;;;;;4837675;28;20249;-81
2021/04/17 07:00:50;;;;;;;4.73;4.33;;;5.40;1.00;;;;;;4810262;28;20192;-78
2021/04/17 07:03:12;;;;;;;4.73;4.23;;;;;;;;;;4836776;28;20223;-81
2021/04/17 07:05:34;;;;;;;5.40;4.93;;;5.10;1.00;;;;;;4838804;28;20244;-77
2021/04/17 07:07:56;;;;;;;5.00;4.50;;;5.20;1.00;;;;;;4837161;28;20195;-77
2021/04/17 07:10:19;;;;;;;5.03;4.63;;;;;;;;;;4820955;28;20250;-77
2021/04/17 07:12:44;;;;;;;5.17;4.77;;;5.20;1.00;;;;;;4836063;28;20206;-79
2021/04/17 07:15:10;;;;;;;5.93;5.40;;;5.20;1.00;;;;;;4837483;28;20222;-81
2021/04/17 07:17:35;;;;;;;5.97;5.47;;;5.30;1.00;;;;;;4837019;28;20199;-73
2021/04/17 07:19:59;;;;;;;6.13;5.60;;;5.30;1.00;;;;;;4836669;28;20870;-79
2021/04/17 07:22:24;;;;;;;6.67;5.97;;;5.90;1.00;;;;;;4837438;28;20245;-81
2021/04/17 07:24:47;;;;;;;5.07;4.67;;;5.50;1.00;;;;;;4819208;28;20250;-76
2021/04/17 07:27:10;;;;;;;6.37;5.77;;;5.60;1.00;;;;;;4817573;28;20215;-79
2021/04/17 07:29:41;;;;;;;6.50;5.93;;;5.60;1.00;;;;;;4824432;28;20294;-78
2021/04/17 07:32:04;;;;;;;7.13;6.47;;;5.70;99.90;;;;;;4820029;28;20226;-81
2021/04/17 07:34:27;;;;;;;7.07;6.40;;;5.70;99.90;;;;;;4802047;28;20255;-78
2021/04/17 07:36:52;;;;;;;5.77;5.23;;;5.70;99.90;;;;;;4817738;28;20238;-78
2021/04/17 07:39:35;;;;;;;5.70;5.23;;;5.80;99.90;;;;;;4819826;28;20621;-82
2021/04/17 07:42:03;;;;;;;6.30;5.70;;;5.80;99.90;;;;;;4819926;28;20187;-81
2021/04/17 07:44:34;;;;;;;6.57;5.97;;;5.80;1.00;;;;;;4817986;28;20211;-81
2021/04/17 07:46:56;;;;;;;6.13;5.63;;;6.00;1.00;;;;;;4818058;28;20252;-81
2021/04/17 07:49:21;;;;;;;6.20;5.60;;;6.30;49.30;;;;;;4818550;28;20195;-79
2021/04/17 07:51:59;;;;;;;6.30;5.70;;;5.80;1.00;;;;;;4820103;28;20199;-81
2021/04/17 07:54:21;;;;;;;6.20;5.70;;;5.80;1.00;;;;;;4822271;28;20183;-83
2021/04/17 07:56:43;;;;;;;5.17;4.77;;;5.90;99.90;;;;;;4822082;28;20214;-81
2021/04/17 07:59:06;;;;;;;5.77;5.27;;;5.90;1.00;;;;;;4823175;28;20187;-81
2021/04/17 08:01:30;;;;;;;6.03;5.43;;;5.80;1.00;;;;;;4852149;28;20230;-78
2021/04/17 08:03:56;;;;;;;6.57;5.97;;;5.90;1.00;;;;;;4836763;28;20207;-78
2021/04/17 08:06:18;;;;;;;6.33;5.73;;;5.70;1.00;;;;;;4822326;28;20195;-78
2021/04/17 08:08:42;;;;;;;6.07;5.57;;;5.90;99.90;;;;;;4835830;28;20191;-82
2021/04/17 08:11:06;;;;;;;6.10;5.50;;;5.90;15.50;;;;;;4840286;28;20256;-83
2021/04/17 08:13:28;;;;;;;5.97;5.47;;;5.80;1.00;;;;;;4842103;28;20716;-85
2021/04/17 08:15:51;;;;;;;5.77;5.27;;;;;;;;;;4840607;28;20229;-82
2021/04/17 08:18:14;;;;;;;6.43;5.87;;;;;;;;;;4841683;28;20187;-82
2021/04/17 08:20:36;;;;;;;6.00;5.40;;;5.70;1.00;;;;;;4842035;28;20245;-82
2021/04/17 08:22:59;;;;;;;7.30;6.60;;;5.80;1.00;;;;;;4814838;28;20242;-83
2021/04/17 08:25:24;;;;;;;8.43;7.53;;;5.70;99.90;;;;;;4824195;28;20187;-81
2021/04/17 08:27:47;;;;;;;8.63;7.73;;;5.70;1.00;;;;;;4822752;28;20192;-82
2021/04/17 08:30:10;;;;;;;8.80;8.00;;;6.20;1.00;;;;;;4840303;28;20260;-81
2021/04/17 08:32:33;;;;;;;7.07;6.37;;;5.60;1.00;;;;;;4838440;28;20199;-76
2021/04/17 08:35:05;;;;;;;7.33;6.73;;;5.60;1.00;;;;;;4839233;28;20273;-78
2021/04/17 08:37:30;;;;;;;7.10;6.50;;;5.60;1.00;;;;;;4840299;28;20244;-82
2021/04/17 08:39:54;;;;;;;8.80;7.90;;;;;;;;;;4855566;28;20684;-78
2021/04/17 08:42:19;;;;;;;7.03;6.37;;;5.60;99.90;;;;;;4841517;28;20183;-79
2021/04/17 08:44:43;;;;;;;7.70;7.07;;;5.50;1.00;;;;;;4821690;28;20199;-82
2021/04/17 08:47:07;;;;;;;6.33;5.83;;;5.70;1.00;;;;;;4839853;28;20272;-79
2021/04/17 08:49:31;;;;;;;6.33;5.73;;;5.60;87.00;;;;;;4841294;28;20688;-78
2021/04/17 08:52:19;;;;;;;6.70;6.10;;;4.90;1.00;;;;;;4820043;28;20715;-77
2021/04/17 08:54:41;;;;;;;6.20;5.60;;;5.50;99.90;;;;;;4823146;28;20196;-80
2021/04/17 08:57:12;;;;;;;7.57;6.83;;;5.50;1.00;;;;;;4840501;28;20215;-81
2021/04/17 08:59:37;;;;;;;10.20;9.10;;;5.50;83.20;;;;;;4820984;28;20231;-82
2021/04/17 09:02:04;;;;;;;9.47;8.57;;;5.50;99.90;;;;;;4828651;28;20230;-76
2021/04/17 09:04:26;;;;;;;7.93;7.10;;;5.50;99.90;;;;;;4819104;28;20196;-82
2021/04/17 09:06:51;;;;;;;7.87;7.17;;;5.90;99.90;;;;;;4812724;28;20196;-81
2021/04/17 09:09:30;;;;;;;7.50;6.80;;;5.70;99.90;;;;;;4840944;28;20253;-79
2021/04/17 09:11:53;;;;;;;8.07;7.33;;;5.80;38.30;;;;;;4840793;28;20175;-81
2021/04/17 09:14:51;;;;;;;7.70;7.00;;;6.00;1.00;;;;;;4840058;28;20202;-82
2021/04/17 09:17:41;;;;;;;6.27;5.67;;;5.60;1.00;;;;;;4811854;28;20204;-80
2021/04/17 09:20:05;;;;;;;6.97;6.30;;;6.00;1.00;;;;;;4820809;28;20208;-79
2021/04/17 09:22:48;;;;;;;6.67;6.07;;;6.20;1.00;;;;;;4836836;28;20608;-81
2021/04/17 09:25:12;;;;;;;8.17;7.37;;;6.30;1.00;;;;;;4839555;28;20218;-82
2021/04/17 09:27:36;;;;;;;7.37;6.77;;;6.50;1.00;;;;;;4839131;28;20257;-81
2021/04/17 09:30:01;;;;;;;6.90;6.27;;;6.60;1.00;;;;;;4822048;28;20191;-78
2021/04/17 09:32:23;;;;;;;6.33;5.73;;;6.70;99.90;;;;;;4840226;28;20194;-75
2021/04/17 09:34:45;;;;;;;4.83;4.43;;;7.10;1.00;;;;;;4834280;28;20195;-81
2021/04/17 09:37:11;;;;;;;5.17;4.73;;;7.20;99.90;;;;;;4826748;28;20211;-82
2021/04/17 09:39:34;;;;;;;5.27;4.77;;;;;;;;;;4824264;28;20223;-81
2021/04/17 09:41:59;;;;;;;4.73;4.33;;;6.80;1.00;;;;;;4836111;28;20205;-81
2021/04/17 09:44:22;;;;;;;4.73;4.33;;;7.40;99.90;;;;;;4839304;28;20187;-79
2021/04/17 09:46:45;;;;;;;5.53;5.07;;;7.50;99.90;;;;;;4839719;28;20195;-81
2021/04/17 09:49:07;;;;;;;5.47;5.03;;;7.20;1.00;;;;;;4837696;28;20230;-80
2021/04/17 09:51:30;;;;;;;5.13;4.63;;;7.40;52.90;;;;;;4821778;28;20187;-79
2021/04/17 09:54:00;;;;;;;5.07;4.67;;;7.40;99.90;;;;;;4837174;28;20246;-82
2021/04/17 09:56:27;;;;;;;4.33;3.93;;;7.60;99.90;;;;;;4839311;28;20260;-78
2021/04/17 09:58:49;;;;;;;3.80;3.50;;;;;;;;;;4839432;28;20191;-80
2021/04/17 10:01:14;;;;;;;4.30;3.90;;;7.50;1.00;;;;;;4833370;28;20231;-79
2021/04/17 10:03:39;;;;;;;4.10;3.80;;;7.40;1.00;;;;;;4835176;28;20237;-82
2021/04/17 10:06:01;;;;;;;4.73;4.33;;;7.00;1.00;;;;;;4838153;28;20194;-84
2021/04/17 10:08:35;;;;;;;5.33;4.87;;;7.30;1.00;;;;;;4839942;28;20261;-76
2021/04/17 10:10:57;;;;;;;5.93;5.43;;;7.30;1.00;;;;;;4829348;28;20530;-76
2021/04/17 10:13:42;;;;;;;5.87;5.27;;;7.40;99.90;;;;;;4834647;28;20195;-78
2021/04/17 10:16:04;;;;;;;4.43;4.03;;;7.10;91.50;;;;;;4829366;28;20215;-77
2021/04/17 10:18:26;;;;;;;4.20;3.87;;;7.50;1.00;;;;;;4824313;28;20203;-82
2021/04/17 10:20:50;;;;;;;4.43;4.03;;;7.50;1.00;;;;;;4839590;28;20191;-76
2021/04/17 10:23:12;;;;;;;5.00;4.60;;;7.20;99.90;;;;;;4839802;28;20253;-78
2021/04/17 10:25:37;;;;;;;4.67;4.27;;;7.10;1.00;;;;;;4838017;28;20392;-79
2021/04/17 10:28:11;;;;;;;4.63;4.23;;;7.10;1.00;;;;;;4838476;28;20240;-84
2021/04/17 10:30:33;;;;;;;4.73;4.30;;;7.50;99.90;;;;;;4854461;28;20175;-74
2021/04/17 10:32:55;;;;;;;5.27;4.77;;;7.20;99.90;;;;;;4837811;28;20534;-79
2021/04/17 10:35:17;;;;;;;4.73;4.33;;;6.90;99.90;;;;;;4838364;28;20676;-77
2021/04/17 10:37:44;;;;;;;4.83;4.43;;;7.30;1.00;;;;;;4807039;28;20278;-76
2021/04/17 10:40:08;;;;;;;4.77;4.37;;;7.30;1.00;;;;;;4838295;28;20218;-80
2021/04/17 10:42:48;;;;;;;4.97;4.30;;;7.10;1.00;;;;;;4818885;28;20257;-80
2021/04/17 10:45:11;;;;;;;4.70;4.30;;;7.40;1.00;;;;;;4834455;28;20190;-80
2021/04/17 10:47:33;;;;;;;4.30;3.90;;;7.10;1.00;;;;;;4837783;28;20292;-76
2021/04/17 10:49:55;;;;;;;4.50;4.10;;;7.20;27.80;;;;;;4837475;28;20186;-79
2021/04/17 10:52:27;;;;;;;5.03;4.63;;;7.00;99.90;;;;;;4837587;28;20269;-75
2021/04/17 10:54:54;;;;;;;5.43;4.93;;;6.90;1.00;;;;;;4836484;28;20248;-74
2021/04/17 10:57:17;;;;;;;5.27;4.77;;;;;;;;;;4833720;28;20200;-79
2021/04/17 10:59:55;;;;;;;5.73;5.23;;;7.20;1.00;;;;;;4848904;28;20209;-76
2021/04/17 11:02:26;;;;;;;5.27;4.77;;;6.50;99.90;;;;;;4833476;28;20268;-75
2021/04/17 11:04:48;;;;;;;5.47;5.00;;;;;;;;;;4819742;28;20191;-75
2021/04/17 11:07:11;;;;;;;5.23;4.83;;;7.40;1.00;;;;;;4821843;28;20685;-76
2021/04/17 11:09:33;;;;;;;5.20;4.70;;;7.60;1.00;;;;;;4853415;28;20197;-75
2021/04/17 11:11:57;;;;;;;4.70;4.30;;;7.50;1.00;;;;;;4836880;28;20551;-75
2021/04/17 11:14:21;;;;;;;5.00;4.40;;;6.90;1.00;;;;;;4834648;28;20210;-77
2021/04/17 11:16:45;;;;;;;5.93;4.13;;;7.60;48.80;;;;;;4834857;28;20215;-75
2021/04/17 11:19:23;;;;;;;4.50;4.10;;;8.10;1.00;;;;;;4831845;28;20254;-74
2021/04/17 11:21:46;;;;;;;3.87;3.57;;;;;;;;;;4826648;28;20174;-75
2021/04/17 11:24:13;;;;;;;3.57;3.27;;;7.70;1.00;;;;;;4836328;28;20877;-76
2021/04/17 11:26:39;;;;;;;4.10;3.70;;;;;;;;;;4832764;28;20241;-75
2021/04/17 11:29:05;;;;;;;5.23;4.73;;;7.90;99.90;;;;;;4833598;28;20183;-77
2021/04/17 11:31:29;;;;;;;4.10;3.80;;;7.80;99.90;;;;;;4835795;28;20255;-74
2021/04/17 11:33:52;;;;;;;3.77;3.47;;;7.90;1.00;;;;;;4836704;28;20249;-74
2021/04/17 11:36:14;;;;;;;3.53;3.23;;;;;;;;;;4834154;28;20215;-73
2021/04/17 11:38:36;;;;;;;4.27;3.87;;;7.50;62.60;;;;;;4834266;28;20281;-74
2021/04/17 11:41:07;;;;;;;4.30;3.90;;;7.80;99.90;;;;;;4832143;28;20253;-73
2021/04/17 11:43:29;;;;;;;4.07;3.77;;;7.70;1.00;;;;;;4835416;28;20210;-74
2021/04/17 11:45:53;;;;;;;4.77;4.33;;;7.40;1.00;;;;;;4834661;28;20187;-75
2021/04/17 11:48:15;;;;;;;4.60;4.20;;;;;;;;;;4836502;28;20664;-75
2021/04/17 11:50:38;;;;;;;4.07;3.73;;;7.40;99.90;;;;;;4833135;28;20206;-74
2021/04/17 11:53:00;;;;;;;3.90;3.60;;;;;;;;;;4831412;28;20191;-73
2021/04/17 11:55:23;;;;;;;3.93;3.63;;;7.60;99.90;;;;;;4833720;28;20198;-74
2021/04/17 11:57:45;;;;;;;5.07;4.67;;;7.80;1.00;;;;;;4823825;28;20299;-75
2021/04/17 12:00:09;;;;;;;5.03;4.53;;;7.20;1.00;;;;;;4817333;28;20575;-76
2021/04/17 12:02:32;;;;;;;4.83;4.43;;;7.60;1.00;;;;;;4833823;28;20716;-74
2021/04/17 12:04:54;;;;;;;4.63;4.23;;;;;;;;;;4834355;28;20581;-75
2021/04/17 12:07:17;;;;;;;4.37;4.00;;;7.20;1.00;;;;;;4834828;28;20211;-76
2021/04/17 12:09:39;;;;;;;4.13;3.73;;;8.00;99.90;;;;;;4801601;28;20815;-74
2021/04/17 12:12:02;;;;;;;4.03;3.70;;;;;;;;;;4832736;28;20199;-78
2021/04/17 12:14:24;;;;;;;3.57;3.30;;;8.50;99.90;;;;;;4847188;28;20194;-75
2021/04/17 12:16:46;;;;;;;3.77;3.47;;;;;;;;;;4818098;28;20242;-75
2021/04/17 12:19:09;;;;;;;4.80;4.37;;;8.50;1.00;;;;;;4830634;28;20261;-75
2021/04/17 12:21:31;;;;;;;4.37;3.97;;;8.60;99.90;;;;;;4834912;28;20253;-75
2021/04/17 12:23:53;;;;;;;4.07;3.67;;;8.90;1.00;;;;;;4834746;28;20182;-76
2021/04/17 12:26:15;;;;;;;4.67;4.27;;;7.70;99.90;;;;;;4835812;28;20203;-75
2021/04/17 12:28:37;;;;;;;3.90;3.60;;;8.70;99.90;;;;;;4836535;28;20191;-76
2021/04/17 12:30:59;;;;;;;3.40;3.13;;;;;;;;;;4835267;28;20264;-76
2021/04/17 12:33:22;;;;;;;3.07;2.87;;;8.40;1.00;;;;;;4817495;28;20195;-76
2021/04/17 12:35:45;;;;;;;2.87;2.67;;;8.30;1.00;;;;;;4837581;28;20271;-75
2021/04/17 12:38:08;;;;;;;4.10;3.80;;;8.00;1.00;;;;;;4818458;28;20223;-76
2021/04/17 12:40:31;;;;;;;3.47;3.17;;;8.20;99.90;;;;;;4837848;28;20231;-76
2021/04/17 12:42:53;;;;;;;3.87;3.53;;;8.10;99.90;;;;;;4807713;28;20258;-75
2021/04/17 12:45:15;;;;;;;3.93;3.63;;;7.90;99.90;;;;;;4822132;28;20179;-77
2021/04/17 12:47:38;;;;;;;4.27;3.90;;;;;;;;;;4852311;28;20257;-78
2021/04/17 12:50:00;;;;;;;3.97;3.67;;;7.90;1.00;;;;;;4840444;28;20195;-77